sensor_id;sensor_type;location;lat;lon;timestamp;pressure;altitude;pressure_sealevel;temperature;humidity
45621;BME280;31345;51.522;10.702;2022-07-06T00:02:09;99709.81;;;14.18;91.25
45621;BME280;31345;51.522;10.702;2022-07-06T00:04:42;99705.09;;;14.10;91.53
45621;BME280;31345;51.522;10.702;2022-07-06T00:07:10;99699.06;;;14.21;90.34
45621;BME280;31345;51.522;10.702;2022-07-06T00:09:40;99702.03;;;14.16;91.16
45621;BME280;31345;51.522;10.702;2022-07-06T00:12:11;99699.88;;;14.34;89.44
45621;BME280;31345;51.522;10.702;2022-07-06T00:14:39;99706.59;;;14.38;88.92
45621;BME280;31345;51.522;10.702;2022-07-06T00:17:11;99706.25;;;14.43;88.57
45621;BME280;31345;51.522;10.702;2022-07-06T00:19:42;99699.84;;;13.97;90.32
45621;BME280;31345;51.522;10.702;2022-07-06T00:22:10;99702.19;;;13.88;91.18
45621;BME280;31345;51.522;10.702;2022-07-06T00:24:39;99706.81;;;13.85;91.45
45621;BME280;31345;51.522;10.702;2022-07-06T00:27:07;99715.13;;;13.79;92.62
45621;BME280;31345;51.522;10.702;2022-07-06T00:29:35;99711.78;;;13.77;92.50
45621;BME280;31345;51.522;10.702;2022-07-06T00:32:04;99707.69;;;13.72;94.52
45621;BME280;31345;51.522;10.702;2022-07-06T00:34:32;99713.25;;;13.94;93.28
45621;BME280;31345;51.522;10.702;2022-07-06T00:37:03;99705.56;;;13.78;94.34
45621;BME280;31345;51.522;10.702;2022-07-06T00:39:34;99720.81;;;13.72;95.60
45621;BME280;31345;51.522;10.702;2022-07-06T00:42:05;99717.06;;;14.14;93.31
45621;BME280;31345;51.522;10.702;2022-07-06T00:44:33;99715.97;;;13.92;94.96
45621;BME280;31345;51.522;10.702;2022-07-06T00:47:02;99705.69;;;14.26;92.36
45621;BME280;31345;51.522;10.702;2022-07-06T00:49:30;99699.44;;;14.03;93.33
45621;BME280;31345;51.522;10.702;2022-07-06T00:52:18;99705.97;;;13.71;96.38
45621;BME280;31345;51.522;10.702;2022-07-06T00:54:46;99702.38;;;13.85;95.73
45621;BME280;31345;51.522;10.702;2022-07-06T00:57:20;99704.28;;;13.96;94.11
45621;BME280;31345;51.522;10.702;2022-07-06T00:59:57;99708.00;;;13.68;95.81
45621;BME280;31345;51.522;10.702;2022-07-06T01:02:26;99703.53;;;13.29;98.32
45621;BME280;31345;51.522;10.702;2022-07-06T01:04:57;99702.59;;;13.30;99.22
45621;BME280;31345;51.522;10.702;2022-07-06T01:07:27;99702.38;;;13.33;98.87
45621;BME280;31345;51.522;10.702;2022-07-06T01:09:56;99695.06;;;13.65;96.16
45621;BME280;31345;51.522;10.702;2022-07-06T01:12:24;99695.03;;;13.91;92.63
45621;BME280;31345;51.522;10.702;2022-07-06T01:14:53;99697.16;;;13.59;94.00
45621;BME280;31345;51.522;10.702;2022-07-06T01:17:25;99697.13;;;13.20;96.97
45621;BME280;31345;51.522;10.702;2022-07-06T01:19:53;99703.69;;;13.00;100.00
45621;BME280;31345;51.522;10.702;2022-07-06T01:22:28;99698.88;;;13.07;100.00
45621;BME280;31345;51.522;10.702;2022-07-06T01:25:00;99698.41;;;13.28;98.47
45621;BME280;31345;51.522;10.702;2022-07-06T01:27:31;99694.50;;;13.20;97.39
45621;BME280;31345;51.522;10.702;2022-07-06T01:30:00;99695.50;;;13.58;95.75
45621;BME280;31345;51.522;10.702;2022-07-06T01:32:31;99687.53;;;13.19;96.24
45621;BME280;31345;51.522;10.702;2022-07-06T01:35:00;99689.06;;;13.23;96.27
45621;BME280;31345;51.522;10.702;2022-07-06T01:37:33;99692.09;;;13.43;95.33
45621;BME280;31345;51.522;10.702;2022-07-06T01:40:02;99691.66;;;13.10;97.39
45621;BME280;31345;51.522;10.702;2022-07-06T01:42:31;99692.47;;;12.98;98.94
45621;BME280;31345;51.522;10.702;2022-07-06T01:45:00;99693.88;;;13.43;95.00
45621;BME280;31345;51.522;10.702;2022-07-06T01:47:31;99695.09;;;12.98;99.46
45621;BME280;31345;51.522;10.702;2022-07-06T01:50:00;99705.97;;;12.92;99.27
45621;BME280;31345;51.522;10.702;2022-07-06T01:52:33;99696.44;;;12.91;99.29
45621;BME280;31345;51.522;10.702;2022-07-06T01:55:03;99687.47;;;12.80;100.00
45621;BME280;31345;51.522;10.702;2022-07-06T01:57:33;99677.66;;;12.97;99.29
45621;BME280;31345;51.522;10.702;2022-07-06T02:00:04;99682.69;;;13.00;100.00
45621;BME280;31345;51.522;10.702;2022-07-06T02:02:39;99678.13;;;13.43;95.69
45621;BME280;31345;51.522;10.702;2022-07-06T02:05:11;99677.50;;;13.65;93.46
45621;BME280;31345;51.522;10.702;2022-07-06T02:07:43;99686.75;;;12.91;97.98
45621;BME280;31345;51.522;10.702;2022-07-06T02:10:15;99679.03;;;12.62;100.00
45621;BME280;31345;51.522;10.702;2022-07-06T02:12:44;99686.94;;;12.75;100.00
45621;BME280;31345;51.522;10.702;2022-07-06T02:15:13;99686.69;;;13.06;100.00
45621;BME280;31345;51.522;10.702;2022-07-06T02:17:41;99697.00;;;13.09;99.74
45621;BME280;31345;51.522;10.702;2022-07-06T02:20:09;99699.72;;;13.07;99.74
45621;BME280;31345;51.522;10.702;2022-07-06T02:22:40;99696.44;;;12.91;100.00
45621;BME280;31345;51.522;10.702;2022-07-06T02:25:10;99692.69;;;13.08;98.52
45621;BME280;31345;51.522;10.702;2022-07-06T02:27:40;99696.06;;;13.23;98.83
45621;BME280;31345;51.522;10.702;2022-07-06T02:30:10;99706.66;;;12.95;100.00
45621;BME280;31345;51.522;10.702;2022-07-06T02:32:39;99701.41;;;12.95;100.00
45621;BME280;31345;51.522;10.702;2022-07-06T02:35:08;99696.50;;;13.43;95.33
45621;BME280;31345;51.522;10.702;2022-07-06T02:37:36;99703.63;;;13.41;95.53
45621;BME280;31345;51.522;10.702;2022-07-06T02:40:05;99694.75;;;13.56;95.34
45621;BME280;31345;51.522;10.702;2022-07-06T02:42:37;99700.72;;;13.45;95.38
45621;BME280;31345;51.522;10.702;2022-07-06T02:45:07;99697.78;;;13.37;95.17
45621;BME280;31345;51.522;10.702;2022-07-06T02:47:35;99696.19;;;13.21;96.77
45621;BME280;31345;51.522;10.702;2022-07-06T02:50:06;99699.88;;;12.91;98.68
45621;BME280;31345;51.522;10.702;2022-07-06T02:52:37;99700.63;;;12.93;99.01
45621;BME280;31345;51.522;10.702;2022-07-06T02:55:06;99705.25;;;12.90;99.83
45621;BME280;31345;51.522;10.702;2022-07-06T02:57:36;99700.69;;;13.32;95.88
45621;BME280;31345;51.522;10.702;2022-07-06T03:00:06;99704.81;;;12.83;100.00
45621;BME280;31345;51.522;10.702;2022-07-06T03:02:35;99709.56;;;12.91;99.98
45621;BME280;31345;51.522;10.702;2022-07-06T03:05:04;99706.44;;;13.11;96.76
45621;BME280;31345;51.522;10.702;2022-07-06T03:07:32;99714.56;;;12.81;97.61
45621;BME280;31345;51.522;10.702;2022-07-06T03:10:04;99711.28;;;13.05;95.55
45621;BME280;31345;51.522;10.702;2022-07-06T03:12:32;99709.66;;;12.89;96.34
45621;BME280;31345;51.522;10.702;2022-07-06T03:15:03;99722.47;;;12.39;99.41
45621;BME280;31345;51.522;10.702;2022-07-06T03:17:33;99727.38;;;12.16;100.00
45621;BME280;31345;51.522;10.702;2022-07-06T03:20:01;99731.75;;;12.30;100.00
45621;BME280;31345;51.522;10.702;2022-07-06T03:22:29;99733.56;;;12.29;100.00
45621;BME280;31345;51.522;10.702;2022-07-06T03:24:59;99727.06;;;12.35;100.00
45621;BME280;31345;51.522;10.702;2022-07-06T03:27:27;99724.06;;;12.27;100.00
45621;BME280;31345;51.522;10.702;2022-07-06T03:29:55;99721.41;;;12.56;98.58
45621;BME280;31345;51.522;10.702;2022-07-06T03:32:24;99719.75;;;12.40;99.92
45621;BME280;31345;51.522;10.702;2022-07-06T03:34:56;99716.16;;;11.99;100.00
45621;BME280;31345;51.522;10.702;2022-07-06T03:37:25;99721.13;;;12.04;100.00
45621;BME280;31345;51.522;10.702;2022-07-06T03:39:53;99719.06;;;12.51;97.76
45621;BME280;31345;51.522;10.702;2022-07-06T03:42:22;99719.50;;;12.30;98.99
45621;BME280;31345;51.522;10.702;2022-07-06T03:44:51;99727.56;;;11.83;100.00
45621;BME280;31345;51.522;10.702;2022-07-06T03:47:20;99716.97;;;11.70;100.00
45621;BME280;31345;51.522;10.702;2022-07-06T03:49:51;99727.16;;;11.61;100.00
45621;BME280;31345;51.522;10.702;2022-07-06T03:52:19;99722.53;;;12.10;100.00
45621;BME280;31345;51.522;10.702;2022-07-06T03:54:53;99724.66;;;12.32;97.36
45621;BME280;31345;51.522;10.702;2022-07-06T03:57:25;99734.47;;;12.28;99.35
45621;BME280;31345;51.522;10.702;2022-07-06T03:59:58;99737.31;;;11.96;100.00
45621;BME280;31345;51.522;10.702;2022-07-06T04:02:27;99747.09;;;11.78;100.00
45621;BME280;31345;51.522;10.702;2022-07-06T04:04:58;99739.19;;;12.08;100.00
45621;BME280;31345;51.522;10.702;2022-07-06T04:07:26;99741.44;;;12.00;100.00
45621;BME280;31345;51.522;10.702;2022-07-06T04:09:54;99741.03;;;11.77;100.00
45621;BME280;31345;51.522;10.702;2022-07-06T04:12:24;99748.91;;;11.77;100.00
45621;BME280;31345;51.522;10.702;2022-07-06T04:14:55;99740.59;;;12.00;100.00
45621;BME280;31345;51.522;10.702;2022-07-06T04:17:25;99741.97;;;11.91;100.00
45621;BME280;31345;51.522;10.702;2022-07-06T04:20:17;99744.22;;;11.82;100.00
45621;BME280;31345;51.522;10.702;2022-07-06T04:22:46;99744.22;;;11.82;100.00
45621;BME280;31345;51.522;10.702;2022-07-06T04:25:16;99751.03;;;11.85;100.00
45621;BME280;31345;51.522;10.702;2022-07-06T04:27:45;99747.31;;;12.33;100.00
45621;BME280;31345;51.522;10.702;2022-07-06T04:30:14;99750.78;;;12.19;100.00
45621;BME280;31345;51.522;10.702;2022-07-06T04:32:44;99756.94;;;11.89;100.00
45621;BME280;31345;51.522;10.702;2022-07-06T04:35:12;99758.38;;;12.24;100.00
45621;BME280;31345;51.522;10.702;2022-07-06T04:37:42;99758.91;;;12.43;100.00
45621;BME280;31345;51.522;10.702;2022-07-06T04:40:13;99764.09;;;12.58;100.00
45621;BME280;31345;51.522;10.702;2022-07-06T04:42:42;99763.28;;;12.85;99.72
45621;BME280;31345;51.522;10.702;2022-07-06T04:45:10;99756.28;;;13.39;95.77
45621;BME280;31345;51.522;10.702;2022-07-06T04:47:43;99753.25;;;13.45;95.85
45621;BME280;31345;51.522;10.702;2022-07-06T04:50:12;99752.03;;;13.77;93.39
45621;BME280;31345;51.522;10.702;2022-07-06T04:52:42;99757.06;;;13.80;94.45
45621;BME280;31345;51.522;10.702;2022-07-06T04:55:16;99765.28;;;13.75;94.79
45621;BME280;31345;51.522;10.702;2022-07-06T04:57:52;99766.91;;;13.50;98.55
45621;BME280;31345;51.522;10.702;2022-07-06T05:00:22;99763.34;;;13.52;96.98
45621;BME280;31345;51.522;10.702;2022-07-06T05:02:56;99768.31;;;13.56;97.57
45621;BME280;31345;51.522;10.702;2022-07-06T05:05:30;99767.47;;;13.82;96.23
45621;BME280;31345;51.522;10.702;2022-07-06T05:08:01;99768.19;;;13.97;92.75
45621;BME280;31345;51.522;10.702;2022-07-06T05:10:29;99765.66;;;14.21;91.78
45621;BME280;31345;51.522;10.702;2022-07-06T05:13:16;99772.09;;;14.04;95.44
45621;BME280;31345;51.522;10.702;2022-07-06T05:15:45;99773.88;;;14.17;91.72
45621;BME280;31345;51.522;10.702;2022-07-06T05:18:13;99770.53;;;14.52;87.97
45621;BME280;31345;51.522;10.702;2022-07-06T05:20:43;99771.00;;;14.46;89.90
45621;BME280;31345;51.522;10.702;2022-07-06T05:23:16;99774.91;;;14.40;92.66
45621;BME280;31345;51.522;10.702;2022-07-06T05:25:46;99770.31;;;14.55;88.17
45621;BME280;31345;51.522;10.702;2022-07-06T05:28:14;99776.84;;;14.49;89.88
45621;BME280;31345;51.522;10.702;2022-07-06T05:30:43;99780.34;;;15.12;85.47
45621;BME280;31345;51.522;10.702;2022-07-06T05:33:13;99785.03;;;15.20;88.07
45621;BME280;31345;51.522;10.702;2022-07-06T05:35:46;99788.09;;;15.13;90.64
45621;BME280;31345;51.522;10.702;2022-07-06T05:38:15;99785.94;;;15.43;88.11
45621;BME280;31345;51.522;10.702;2022-07-06T05:40:45;99789.31;;;15.45;87.49
45621;BME280;31345;51.522;10.702;2022-07-06T05:43:14;99784.09;;;15.91;82.90
45621;BME280;31345;51.522;10.702;2022-07-06T05:45:42;99783.53;;;15.99;84.67
45621;BME280;31345;51.522;10.702;2022-07-06T05:48:11;99786.75;;;16.02;84.43
45621;BME280;31345;51.522;10.702;2022-07-06T05:50:57;99787.44;;;15.70;86.66
45621;BME280;31345;51.522;10.702;2022-07-06T05:53:30;99795.34;;;15.70;84.74
45621;BME280;31345;51.522;10.702;2022-07-06T05:55:58;99793.31;;;15.74;85.60
45621;BME280;31345;51.522;10.702;2022-07-06T05:58:32;99795.13;;;15.73;83.20
45621;BME280;31345;51.522;10.702;2022-07-06T06:01:01;99792.47;;;15.73;84.79
45621;BME280;31345;51.522;10.702;2022-07-06T06:03:32;99793.69;;;15.69;84.41
45621;BME280;31345;51.522;10.702;2022-07-06T06:06:03;99790.28;;;15.44;85.13
45621;BME280;31345;51.522;10.702;2022-07-06T06:08:33;99789.75;;;15.39;85.82
45621;BME280;31345;51.522;10.702;2022-07-06T06:11:04;99786.28;;;15.38;85.56
45621;BME280;31345;51.522;10.702;2022-07-06T06:13:32;99793.38;;;15.49;83.31
45621;BME280;31345;51.522;10.702;2022-07-06T06:16:00;99790.53;;;15.52;86.14
45621;BME280;31345;51.522;10.702;2022-07-06T06:18:30;99800.28;;;15.39;85.59
45621;BME280;31345;51.522;10.702;2022-07-06T06:21:04;99796.25;;;15.46;85.19
45621;BME280;31345;51.522;10.702;2022-07-06T06:23:41;99798.19;;;15.55;85.70
45621;BME280;31345;51.522;10.702;2022-07-06T06:26:32;99796.34;;;15.80;84.55
45621;BME280;31345;51.522;10.702;2022-07-06T06:29:18;99789.28;;;16.04;82.62
45621;BME280;31345;51.522;10.702;2022-07-06T06:37:47;99787.59;;;16.49;80.49
45621;BME280;31345;51.522;10.702;2022-07-06T06:40:07;99785.31;;;17.00;77.73
45621;BME280;31345;51.522;10.702;2022-07-06T06:43:31;99786.75;;;17.04;78.92
45621;BME280;31345;51.522;10.702;2022-07-06T06:49:46;99787.28;;;17.52;79.45
45621;BME280;31345;51.522;10.702;2022-07-06T06:52:14;99781.25;;;17.71;73.60
45621;BME280;31345;51.522;10.702;2022-07-06T06:54:52;99774.38;;;17.80;71.55
45621;BME280;31345;51.522;10.702;2022-07-06T06:57:33;99778.22;;;17.97;74.45
45621;BME280;31345;51.522;10.702;2022-07-06T07:00:10;99786.34;;;17.84;72.63
45621;BME280;31345;51.522;10.702;2022-07-06T07:02:39;99776.97;;;17.37;72.44
45621;BME280;31345;51.522;10.702;2022-07-06T07:05:08;99787.44;;;17.39;73.45
45621;BME280;31345;51.522;10.702;2022-07-06T07:07:36;99790.41;;;17.24;72.89
45621;BME280;31345;51.522;10.702;2022-07-06T07:10:06;99792.34;;;17.43;73.90
45621;BME280;31345;51.522;10.702;2022-07-06T07:12:44;99791.72;;;17.51;75.80
45621;BME280;31345;51.522;10.702;2022-07-06T07:15:23;99800.56;;;17.61;72.81
45621;BME280;31345;51.522;10.702;2022-07-06T07:17:56;99805.53;;;17.76;71.53
45621;BME280;31345;51.522;10.702;2022-07-06T07:20:40;99797.63;;;17.86;71.07
45621;BME280;31345;51.522;10.702;2022-07-06T07:23:14;99799.28;;;17.77;70.17
45621;BME280;31345;51.522;10.702;2022-07-06T07:25:45;99799.69;;;18.04;72.00
45621;BME280;31345;51.522;10.702;2022-07-06T07:28:16;99792.72;;;18.03;71.03
45621;BME280;31345;51.522;10.702;2022-07-06T07:30:46;99802.41;;;17.49;72.95
45621;BME280;31345;51.522;10.702;2022-07-06T07:33:20;99814.69;;;17.18;71.22
45621;BME280;31345;51.522;10.702;2022-07-06T07:36:03;99814.47;;;17.09;70.20
45621;BME280;31345;51.522;10.702;2022-07-06T07:38:53;99807.25;;;17.11;68.56
45621;BME280;31345;51.522;10.702;2022-07-06T07:41:25;99800.56;;;17.61;68.90
45621;BME280;31345;51.522;10.702;2022-07-06T07:43:58;99814.50;;;18.16;68.75
45621;BME280;31345;51.522;10.702;2022-07-06T07:46:33;99801.44;;;18.24;63.61
45621;BME280;31345;51.522;10.702;2022-07-06T07:49:12;99804.94;;;18.76;64.69
45621;BME280;31345;51.522;10.702;2022-07-06T07:51:45;99805.13;;;18.84;62.42
45621;BME280;31345;51.522;10.702;2022-07-06T07:54:22;99814.22;;;18.50;65.02
45621;BME280;31345;51.522;10.702;2022-07-06T07:56:50;99813.66;;;18.16;65.02
45621;BME280;31345;51.522;10.702;2022-07-06T07:59:30;99817.94;;;18.07;64.69
45621;BME280;31345;51.522;10.702;2022-07-06T08:02:26;99804.97;;;18.04;64.52
45621;BME280;31345;51.522;10.702;2022-07-06T08:05:10;99813.88;;;18.03;64.50
45621;BME280;31345;51.522;10.702;2022-07-06T08:07:48;99814.41;;;17.96;62.77
45621;BME280;31345;51.522;10.702;2022-07-06T08:10:19;99805.25;;;17.58;63.67
45621;BME280;31345;51.522;10.702;2022-07-06T08:12:49;99814.47;;;17.64;65.43
45621;BME280;31345;51.522;10.702;2022-07-06T08:15:21;99817.97;;;17.85;65.81
45621;BME280;31345;51.522;10.702;2022-07-06T08:17:56;99822.03;;;17.90;63.63
45621;BME280;31345;51.522;10.702;2022-07-06T08:20:38;99814.50;;;18.16;64.61
45621;BME280;31345;51.522;10.702;2022-07-06T08:23:09;99818.50;;;18.42;64.14
45621;BME280;31345;51.522;10.702;2022-07-06T08:25:52;99817.09;;;18.37;60.97
45621;BME280;31345;51.522;10.702;2022-07-06T08:28:36;99822.59;;;18.24;62.27
45621;BME280;31345;51.522;10.702;2022-07-06T08:31:35;99815.59;;;18.13;62.38
45621;BME280;31345;51.522;10.702;2022-07-06T08:34:11;99821.75;;;18.24;61.69
45621;BME280;31345;51.522;10.702;2022-07-06T08:36:39;99810.06;;;18.17;63.64
45621;BME280;31345;51.522;10.702;2022-07-06T08:39:08;99821.19;;;18.51;60.82
45621;BME280;31345;51.522;10.702;2022-07-06T08:41:36;99810.00;;;18.07;61.79
45621;BME280;31345;51.522;10.702;2022-07-06T08:44:06;99823.38;;;18.05;60.47
45621;BME280;31345;51.522;10.702;2022-07-06T08:46:37;99825.84;;;17.97;60.59
45621;BME280;31345;51.522;10.702;2022-07-06T08:49:06;99822.66;;;18.03;63.04
45621;BME280;31345;51.522;10.702;2022-07-06T08:51:36;99819.31;;;18.32;61.79
45621;BME280;31345;51.522;10.702;2022-07-06T08:54:04;99822.22;;;18.60;60.27
45621;BME280;31345;51.522;10.702;2022-07-06T08:56:32;99819.91;;;18.46;58.57
45621;BME280;31345;51.522;10.702;2022-07-06T08:59:00;99811.75;;;18.27;58.31
45621;BME280;31345;51.522;10.702;2022-07-06T09:01:28;99817.38;;;18.44;61.67
45621;BME280;31345;51.522;10.702;2022-07-06T09:03:58;99809.25;;;18.57;59.91
45621;BME280;31345;51.522;10.702;2022-07-06T09:06:28;99819.16;;;18.65;61.00
45621;BME280;31345;51.522;10.702;2022-07-06T09:08:57;99809.94;;;18.69;58.12
45621;BME280;31345;51.522;10.702;2022-07-06T09:11:26;99808.97;;;18.29;58.30
45621;BME280;31345;51.522;10.702;2022-07-06T09:13:54;99806.81;;;18.44;58.88
45621;BME280;31345;51.522;10.702;2022-07-06T09:16:26;99809.16;;;18.88;59.86
45621;BME280;31345;51.522;10.702;2022-07-06T09:18:55;99803.03;;;18.88;57.09
45621;BME280;31345;51.522;10.702;2022-07-06T09:21:25;99809.88;;;19.20;58.19
45621;BME280;31345;51.522;10.702;2022-07-06T09:23:54;99812.66;;;19.09;58.56
45621;BME280;31345;51.522;10.702;2022-07-06T09:26:23;99796.91;;;19.07;55.39
45621;BME280;31345;51.522;10.702;2022-07-06T09:28:51;99801.06;;;19.59;55.98
45621;BME280;31345;51.522;10.702;2022-07-06T09:31:19;99798.34;;;19.89;57.53
45621;BME280;31345;51.522;10.702;2022-07-06T09:33:55;99799.00;;;19.13;56.69
45621;BME280;31345;51.522;10.702;2022-07-06T09:36:43;99800.50;;;18.86;56.25
45621;BME280;31345;51.522;10.702;2022-07-06T09:39:20;99807.63;;;19.25;61.08
45621;BME280;31345;51.522;10.702;2022-07-06T09:41:50;99805.69;;;19.27;60.12
45621;BME280;31345;51.522;10.702;2022-07-06T09:44:21;99801.22;;;19.18;59.01
45621;BME280;31345;51.522;10.702;2022-07-06T09:46:51;99793.28;;;19.08;57.20
45621;BME280;31345;51.522;10.702;2022-07-06T09:49:23;99808.59;;;18.85;59.20
45621;BME280;31345;51.522;10.702;2022-07-06T09:51:54;99802.75;;;18.81;56.88
45621;BME280;31345;51.522;10.702;2022-07-06T09:54:22;99815.94;;;18.61;59.19
45621;BME280;31345;51.522;10.702;2022-07-06T09:56:50;99808.63;;;18.53;58.43
45621;BME280;31345;51.522;10.702;2022-07-06T09:59:21;99805.19;;;18.22;58.92
45621;BME280;31345;51.522;10.702;2022-07-06T10:01:53;99809.63;;;18.21;60.93
45621;BME280;31345;51.522;10.702;2022-07-06T10:04:23;99804.97;;;18.35;58.84
45621;BME280;31345;51.522;10.702;2022-07-06T10:06:53;99807.50;;;18.46;59.29
45621;BME280;31345;51.522;10.702;2022-07-06T10:09:23;99800.06;;;18.61;59.63
45621;BME280;31345;51.522;10.702;2022-07-06T10:11:54;99794.38;;;18.86;57.05
45621;BME280;31345;51.522;10.702;2022-07-06T10:14:23;99802.34;;;19.15;57.24
45621;BME280;31345;51.522;10.702;2022-07-06T10:16:52;99794.72;;;19.90;57.76
45621;BME280;31345;51.522;10.702;2022-07-06T10:19:21;99776.41;;;19.97;55.71
45621;BME280;31345;51.522;10.702;2022-07-06T10:21:49;99776.94;;;19.62;55.15
45621;BME280;31345;51.522;10.702;2022-07-06T10:24:21;99793.44;;;19.16;55.79
45621;BME280;31345;51.522;10.702;2022-07-06T10:26:49;99800.13;;;19.31;55.59
45621;BME280;31345;51.522;10.702;2022-07-06T10:29:16;99792.03;;;19.02;54.84
45621;BME280;31345;51.522;10.702;2022-07-06T10:31:45;99797.59;;;19.19;57.11
45621;BME280;31345;51.522;10.702;2022-07-06T10:34:14;99796.91;;;19.17;55.93
45621;BME280;31345;51.522;10.702;2022-07-06T10:39:58;99781.72;;;19.97;52.75
45621;BME280;31345;51.522;10.702;2022-07-06T10:42:45;99775.31;;;20.27;54.73
45621;BME280;31345;51.522;10.702;2022-07-06T10:45:20;99775.41;;;20.08;53.26
45621;BME280;31345;51.522;10.702;2022-07-06T10:48:16;99787.88;;;20.25;54.64
45621;BME280;31345;51.522;10.702;2022-07-06T10:50:47;99788.59;;;19.89;55.13
45621;BME280;31345;51.522;10.702;2022-07-06T10:53:16;99783.72;;;19.75;55.65
45621;BME280;31345;51.522;10.702;2022-07-06T10:55:47;99776.66;;;19.65;54.82
45621;BME280;31345;51.522;10.702;2022-07-06T10:58:51;99786.53;;;19.43;55.88
45621;BME280;31345;51.522;10.702;2022-07-06T11:01:22;99788.78;;;19.58;56.01
45621;BME280;31345;51.522;10.702;2022-07-06T11:04:06;99780.94;;;19.57;56.42
45621;BME280;31345;51.522;10.702;2022-07-06T11:06:35;99786.34;;;19.85;56.31
45621;BME280;31345;51.522;10.702;2022-07-06T11:09:04;99780.59;;;19.99;53.71
45621;BME280;31345;51.522;10.702;2022-07-06T11:11:42;99782.22;;;20.10;55.50
45621;BME280;31345;51.522;10.702;2022-07-06T11:14:15;99786.41;;;20.13;56.76
45621;BME280;31345;51.522;10.702;2022-07-06T11:17:00;99782.34;;;19.71;53.44
45621;BME280;31345;51.522;10.702;2022-07-06T11:19:30;99768.91;;;19.82;52.73
45621;BME280;31345;51.522;10.702;2022-07-06T11:22:05;99763.59;;;20.48;52.04
45621;BME280;31345;51.522;10.702;2022-07-06T11:24:36;99759.25;;;20.57;52.21
45621;BME280;31345;51.522;10.702;2022-07-06T11:27:08;99753.84;;;20.67;50.06
45621;BME280;31345;51.522;10.702;2022-07-06T11:29:36;99752.78;;;21.14;51.96
45621;BME280;31345;51.522;10.702;2022-07-06T11:32:06;99753.09;;;20.75;50.70
45621;BME280;31345;51.522;10.702;2022-07-06T11:34:37;99759.41;;;20.74;52.48
45621;BME280;31345;51.522;10.702;2022-07-06T11:37:07;99762.78;;;20.10;53.53
45621;BME280;31345;51.522;10.702;2022-07-06T11:39:36;99773.91;;;19.95;54.34
45621;BME280;31345;51.522;10.702;2022-07-06T11:42:08;99774.91;;;19.84;53.60
45621;BME280;31345;51.522;10.702;2022-07-06T11:44:38;99776.78;;;20.40;56.63
45621;BME280;31345;51.522;10.702;2022-07-06T11:47:07;99768.16;;;20.28;54.29
45621;BME280;31345;51.522;10.702;2022-07-06T11:49:36;99775.16;;;20.29;51.75
45621;BME280;31345;51.522;10.702;2022-07-06T11:52:08;99769.09;;;20.09;53.26
45621;BME280;31345;51.522;10.702;2022-07-06T11:54:37;99769.47;;;20.14;52.76
45621;BME280;31345;51.522;10.702;2022-07-06T11:57:10;99766.06;;;20.60;55.15
45621;BME280;31345;51.522;10.702;2022-07-06T11:59:39;99754.72;;;20.29;52.20
45621;BME280;31345;51.522;10.702;2022-07-06T12:02:09;99763.84;;;20.27;51.26
45621;BME280;31345;51.522;10.702;2022-07-06T12:04:39;99774.50;;;20.17;52.68
45621;BME280;31345;51.522;10.702;2022-07-06T12:07:10;99769.34;;;20.15;54.09
45621;BME280;31345;51.522;10.702;2022-07-06T12:09:40;99760.03;;;20.01;50.03
45621;BME280;31345;51.522;10.702;2022-07-06T12:12:10;99760.41;;;19.78;51.54
45621;BME280;31345;51.522;10.702;2022-07-06T12:14:40;99752.50;;;20.35;52.29
45621;BME280;31345;51.522;10.702;2022-07-06T12:17:09;99770.56;;;20.21;52.39
45621;BME280;31345;51.522;10.702;2022-07-06T12:19:38;99752.72;;;19.85;52.35
45621;BME280;31345;51.522;10.702;2022-07-06T12:22:07;99762.56;;;20.03;53.44
45621;BME280;31345;51.522;10.702;2022-07-06T12:24:36;99753.22;;;20.27;52.34
45621;BME280;31345;51.522;10.702;2022-07-06T12:27:13;99744.25;;;20.56;54.00
45621;BME280;31345;51.522;10.702;2022-07-06T12:29:42;99748.16;;;20.52;48.66
45621;BME280;31345;51.522;10.702;2022-07-06T12:32:14;99756.81;;;20.36;51.40
45621;BME280;31345;51.522;10.702;2022-07-06T12:34:42;99762.69;;;20.01;53.53
45621;BME280;31345;51.522;10.702;2022-07-06T12:37:11;99764.59;;;19.81;54.44
45621;BME280;31345;51.522;10.702;2022-07-06T12:39:44;99757.41;;;19.91;53.37
45621;BME280;31345;51.522;10.702;2022-07-06T12:42:15;99767.97;;;19.73;55.57
45621;BME280;31345;51.522;10.702;2022-07-06T12:44:44;99770.94;;;19.98;51.58
45621;BME280;31345;51.522;10.702;2022-07-06T12:47:12;99764.53;;;20.01;50.84
45621;BME280;31345;51.522;10.702;2022-07-06T12:49:40;99776.16;;;19.80;53.14
45621;BME280;31345;51.522;10.702;2022-07-06T12:52:10;99768.53;;;19.77;52.25
45621;BME280;31345;51.522;10.702;2022-07-06T12:54:41;99767.75;;;19.94;54.24
45621;BME280;31345;51.522;10.702;2022-07-06T12:57:11;99774.94;;;20.12;54.92
45621;BME280;31345;51.522;10.702;2022-07-06T12:59:43;99767.44;;;20.08;53.27
45621;BME280;31345;51.522;10.702;2022-07-06T13:02:19;99763.28;;;19.95;52.40
45621;BME280;31345;51.522;10.702;2022-07-06T13:04:55;99769.94;;;20.09;51.49
45621;BME280;31345;51.522;10.702;2022-07-06T13:07:30;99763.84;;;19.89;51.92
45621;BME280;31345;51.522;10.702;2022-07-06T13:09:58;99768.09;;;19.72;50.84
45621;BME280;31345;51.522;10.702;2022-07-06T13:12:27;99762.66;;;20.11;52.24
45621;BME280;31345;51.522;10.702;2022-07-06T13:14:57;99756.78;;;20.17;49.37
45621;BME280;31345;51.522;10.702;2022-07-06T13:17:25;99759.53;;;20.26;49.11
45621;BME280;31345;51.522;10.702;2022-07-06T13:19:53;99757.28;;;19.93;51.90
45621;BME280;31345;51.522;10.702;2022-07-06T13:22:20;99764.75;;;19.70;51.39
45621;BME280;31345;51.522;10.702;2022-07-06T13:24:49;99760.03;;;19.43;50.94